< < Back
Terminal Aerodrome Forecast


Current Version              Previous Versions:   1  2  3  4  5  6  7  8  9  

Terminal Aerodrome Forecast

810
FTAK31 PAJN 271720
TAFAGS
TAF
PAGS 271720Z 2718/2818 VRB03KT P6SM VCSH OVC005
     FM272000 21006KT P6SM SCT060 BKN120
     FM280400 VRB03KT P6SM SCT050 BKN100
     FM281200 VRB02KT P6SM SCT015 BKN100
      AMD LTD TO CLD VIS AND WIND=

Latest METAR

625
SAUS70 KWBC 272200 RRP
MTRAGS
METAR KAGS 272153Z 14006KT 10SM FEW065 32/22 A2996 RMK AO2 LTG DSNT W
AND NW SLP142 T03170222


USA.gov is the U.S. government's official web portal to all federal, state and local government web resources and services.